Time;durP1;ratioP1;P1;durP2;ratioP2;P2;SDS_P1;SDS_P2;PMS_P1;PMS_P2;Temp;Humidity;BMP_temperature;BMP_pressure;BME280_temperature;BME280_humidity;BME280_pressure;Samples;Min_cycle;Max_cycle;Signal;HPM_P1;HPM_P2
2022/09/28 00:00:17;;;;;;;;;;;;;;;13.33;59.91;98401.66;4336429;33;20328;-89
2022/09/28 00:02:43;;;;;;;;;;;;;;;13.13;59.91;98408.13;4334475;33;20044;-88
2022/09/28 00:05:10;;;;;;;;;;;;;;;13.10;59.90;98401.31;4319060;33;20012;-88
2022/09/28 00:07:35;;;;;;;;;;;;;;;12.96;59.88;98401.34;4331322;33;19986;-87
2022/09/28 00:10:00;;;;;;;;;;;;;;;12.89;59.89;98400.91;4330973;33;24985;-88
2022/09/28 00:12:26;;;;;;;;;;;;;;;12.87;59.89;98396.72;4331474;33;20003;-87
2022/09/28 00:14:52;;;;;;;;;;;;;;;12.78;59.88;98392.91;4331447;33;20001;-88
2022/09/28 00:17:20;;;;;;;;;;;;;;;12.79;59.88;98386.75;4332345;33;21682;-88
2022/09/28 00:19:46;;;;;;;;;;;;;;;12.71;59.88;98375.09;4332557;33;20039;-88
2022/09/28 00:22:11;;;;;;;;;;;;;;;12.77;59.88;98390.38;4333989;33;19988;-88
2022/09/28 00:24:36;;;;;;;;;;;;;;;12.78;59.88;98392.91;4329790;33;32287;-88
2022/09/28 00:27:02;;;;;;;;;;;;;;;12.84;59.88;98391.69;4317785;33;28369;-89
2022/09/28 00:29:31;;;;;;;;;;;;;;;12.77;59.88;98393.81;4332973;33;20035;-89
2022/09/28 00:32:01;;;;;;;;;;;;;;;12.86;59.89;98390.66;4319157;33;20023;-89
2022/09/28 00:34:32;;;;;;;;;;;;;;;12.64;59.87;98389.47;4332404;33;20006;-89
2022/09/28 00:36:57;;;;;;;;;;;;;;;12.62;59.88;98388.72;4331959;33;20325;-89
2022/09/28 00:39:22;;;;;;;;;;;;;;;12.70;59.88;98387.31;4331376;33;19984;-89
2022/09/28 00:41:47;;;;;;;;;;;;;;;12.81;59.88;98386.66;4331092;33;20006;-88
2022/09/28 00:44:25;;;;;;;;;;;;;;;12.83;59.89;98387.41;4332674;33;28995;-89
2022/09/28 00:46:54;;;;;;;;;;;;;;;12.80;59.88;98390.22;4332289;33;19988;-87
2022/09/28 00:49:19;;;;;;;;;;;;;;;12.72;59.88;98388.06;4331257;33;20048;-87
2022/09/28 00:51:44;;;;;;;;;;;;;;;12.68;59.88;98391.78;4330965;33;20028;-88
2022/09/28 00:54:10;;;;;;;;;;;;;;;12.64;59.87;98385.09;4331587;33;23694;-88
2022/09/28 00:56:35;;;;;;;;;;;;;;;12.76;59.89;98378.25;4330583;33;33503;-89
2022/09/28 00:59:00;;;;;;;;;;;;;;;12.75;59.89;98389.62;4331908;33;20026;-88
2022/09/28 01:01:26;;;;;;;;;;;;;;;12.75;59.88;98389.62;4331881;33;20011;-88
2022/09/28 01:03:52;;;;;;;;;;;;;;;12.89;59.88;98392.22;4338226;33;20006;-89
2022/09/28 01:06:19;;;;;;;;;;;;;;;12.86;59.89;98388.03;4346584;33;19962;-89
2022/09/28 01:08:45;;;;;;;;;;;;;;;12.89;59.88;98387.00;4345574;32;19984;-90
2022/09/28 01:11:10;;;;;;;;;;;;;;;12.78;59.88;98384.25;4340555;33;20002;-89
2022/09/28 01:13:35;;;;;;;;;;;;;;;12.88;59.90;98388.78;4337379;33;19988;-89
2022/09/28 01:16:19;;;;;;;;;;;;;;;12.84;59.89;98392.53;4333550;33;27756;-89
2022/09/28 01:19:03;;;;;;;;;;;;;;;12.87;59.88;98392.31;4334541;33;20007;-88
2022/09/28 01:21:29;;;;;;;;;;;;;;;12.89;59.89;98390.47;4332318;33;19984;-89
2022/09/28 01:24:17;;;;;;;;;;;;;;;12.89;59.90;98400.06;4330397;33;26733;-89
2022/09/28 01:26:48;;;;;;;;;;;;;;;12.90;59.90;98397.34;4331658;33;20055;-89
2022/09/28 01:29:14;;;;;;;;;;;;;;;13.01;59.90;98395.81;4331004;33;20273;-91
2022/09/28 01:31:40;;;;;;;;;;;;;;;12.96;59.89;98400.50;4332073;33;20031;-90
2022/09/28 01:34:10;;;;;;;;;;;;;;;13.07;59.90;98404.12;4330417;33;20050;-90
2022/09/28 01:36:37;;;;;;;;;;;;;;;12.98;59.90;98402.09;4342297;33;20021;-89
2022/09/28 01:39:07;;;;;;;;;;;;;;;12.97;59.89;98403.03;4344080;33;20019;-89
2022/09/28 01:41:32;;;;;;;;;;;;;;;13.05;59.90;98410.41;4333459;33;20268;-88
2022/09/28 01:44:01;;;;;;;;;;;;;;;12.94;59.89;98405.00;4332575;33;19984;-88
2022/09/28 01:46:28;;;;;;;;;;;;;;;12.90;59.90;98405.19;4333028;33;20010;-89
2022/09/28 01:48:54;;;;;;;;;;;;;;;12.90;59.89;98420.84;4333766;33;20004;-89
2022/09/28 01:51:45;;;;;;;;;;;;;;;12.91;59.89;98413.88;4332517;33;20059;-89
2022/09/28 01:54:11;;;;;;;;;;;;;;;12.87;59.89;98415.00;4333519;33;19987;-89
2022/09/28 01:56:37;;;;;;;;;;;;;;;13.03;59.89;98420.09;4345030;33;20004;-89
2022/09/28 01:59:05;;;;;;;;;;;;;;;13.04;59.90;98414.78;4345255;33;20014;-89
2022/09/28 02:01:33;;;;;;;;;;;;;;;13.08;59.89;98408.41;4336617;33;19984;-89
2022/09/28 02:04:04;;;;;;;;;;;;;;;12.99;59.90;98416.81;4332583;33;19980;-89
2022/09/28 02:06:37;;;;;;;;;;;;;;;13.18;59.90;98406.91;4332398;33;20018;-89
2022/09/28 02:09:04;;;;;;;;;;;;;;;13.17;59.91;98407.84;4333101;33;19988;-91
2022/09/28 02:11:31;;;;;;;;;;;;;;;13.13;59.91;98415.97;4332494;33;20398;-91
2022/09/28 02:14:08;;;;;;;;;;;;;;;13.18;59.92;98409.53;4334072;33;20269;-90
2022/09/28 02:16:34;;;;;;;;;;;;;;;13.06;59.90;98415.53;4332645;33;19980;-90
2022/09/28 02:18:59;;;;;;;;;;;;;;;13.11;59.90;98416.06;4332685;33;20000;-90
2022/09/28 02:21:25;;;;;;;;;;;;;;;13.11;59.90;98410.00;4320307;33;20003;-88
2022/09/28 02:23:59;;;;;;;;;;;;;;;13.03;59.89;98415.72;4333219;33;20007;-90
2022/09/28 02:26:26;;;;;;;;;;;;;;;13.08;59.90;98410.19;4333504;33;19983;-91
2022/09/28 02:28:52;;;;;;;;;;;;;;;12.91;59.89;98412.09;4334529;33;20058;-90
2022/09/28 02:31:17;;;;;;;;;;;;;;;13.01;59.90;98411.50;4345450;33;34546;-90
2022/09/28 02:33:42;;;;;;;;;;;;;;;12.91;59.89;98411.25;4336510;33;19991;-89
2022/09/28 02:36:08;;;;;;;;;;;;;;;13.01;59.90;98414.09;4325867;33;19984;-89
2022/09/28 02:38:33;;;;;;;;;;;;;;;13.02;59.89;98421.88;4344574;33;30859;-90
2022/09/28 02:41:03;;;;;;;;;;;;;;;12.83;59.89;98416.97;4331658;33;34049;-90
2022/09/28 02:43:28;;;;;;;;;;;;;;;12.97;59.90;98417.84;4332719;33;19993;-90
2022/09/28 02:46:03;;;;;;;;;;;;;;;13.05;59.90;98415.63;4332502;33;19984;-90
2022/09/28 02:48:33;;;;;;;;;;;;;;;13.07;59.90;98425.03;4333833;33;20000;-89
2022/09/28 02:51:13;;;;;;;;;;;;;;;12.99;59.90;98424.66;4331566;33;19991;-89
2022/09/28 02:53:54;;;;;;;;;;;;;;;13.20;59.91;98430.34;4320210;33;19988;-91
2022/09/28 02:56:38;;;;;;;;;;;;;;;13.04;59.90;98427.84;4332942;33;19987;-92
2022/09/28 02:59:03;;;;;;;;;;;;;;;13.08;59.91;98436.31;4333870;33;20042;-91
2022/09/28 03:01:32;;;;;;;;;;;;;;;13.01;59.90;98445.47;4333442;33;20697;-91
2022/09/28 03:04:03;;;;;;;;;;;;;;;13.12;59.91;98445.63;4335950;33;19992;-90
2022/09/28 03:06:30;;;;;;;;;;;;;;;13.15;59.90;98450.66;4333760;33;19960;-90
2022/09/28 03:08:59;;;;;;;;;;;;;;;13.25;59.91;98456.16;4325472;33;20017;-91
2022/09/28 03:11:48;;;;;;;;;;;;;;;13.02;59.90;98462.84;4333343;33;20018;-92
2022/09/28 03:14:13;;;;;;;;;;;;;;;13.08;59.90;98465.06;4320179;33;19975;-91
2022/09/28 03:16:41;;;;;;;;;;;;;;;12.83;59.89;98466.56;4335416;33;20046;-89
2022/09/28 03:19:07;;;;;;;;;;;;;;;12.82;59.89;98458.84;4334635;33;19984;-90
2022/09/28 03:21:32;;;;;;;;;;;;;;;12.77;59.88;98466.09;4332797;33;19991;-90
2022/09/28 03:23:57;;;;;;;;;;;;;;;12.77;59.89;98471.31;4332104;33;19995;-90
2022/09/28 03:26:22;;;;;;;;;;;;;;;12.83;59.89;98469.19;4333508;33;25544;-90
2022/09/28 03:28:48;;;;;;;;;;;;;;;12.67;59.89;98478.88;4334452;33;36477;-91
2022/09/28 03:31:13;;;;;;;;;;;;;;;12.54;59.87;98477.97;4335783;33;19979;-90
2022/09/28 03:33:39;;;;;;;;;;;;;;;12.57;59.86;98472.56;4334870;33;20018;-90
2022/09/28 03:36:04;;;;;;;;;;;;;;;12.71;59.88;98466.47;4335039;33;20241;-89
2022/09/28 03:38:30;;;;;;;;;;;;;;;12.53;59.87;98468.41;4333487;33;20015;-89
2022/09/28 03:40:55;;;;;;;;;;;;;;;12.60;59.88;98465.38;4333422;33;20043;-89
2022/09/28 03:43:21;;;;;;;;;;;;;;;12.63;59.88;98469.56;4320505;33;20002;-89
2022/09/28 03:45:56;;;;;;;;;;;;;;;12.48;59.87;98471.31;4333042;33;19992;-91
2022/09/28 03:48:24;;;;;;;;;;;;;;;12.57;59.88;98476.00;4333978;33;20047;-89
2022/09/28 03:50:53;;;;;;;;;;;;;;;12.44;59.87;98480.25;4334743;33;20681;-88
2022/09/28 03:53:18;;;;;;;;;;;;;;;12.38;59.86;98483.25;4343474;33;19967;-88
2022/09/28 03:55:44;;;;;;;;;;;;;;;12.57;59.88;98478.59;4347282;33;19984;-89
2022/09/28 03:58:09;;;;;;;;;;;;;;;12.54;59.87;98477.97;4343310;33;25940;-91
2022/09/28 04:00:34;;;;;;;;;;;;;;;12.44;59.87;98477.66;4343373;33;31516;-91
2022/09/28 04:02:59;;;;;;;;;;;;;;;12.61;59.88;98468.81;4305430;33;862947;-91
2022/09/28 04:05:24;;;;;;;;;;;;;;;12.72;59.88;98469.00;4332980;33;23271;-92
2022/09/28 04:07:50;;;;;;;;;;;;;;;12.57;59.88;98462.94;4332810;33;29821;-91
2022/09/28 04:10:15;;;;;;;;;;;;;;;12.75;59.89;98466.19;4332887;33;24345;-94
2022/09/28 04:12:40;;;;;;;;;;;;;;;12.76;59.89;98459.19;4332583;33;20792;-90
2022/09/28 04:15:05;;;;;;;;;;;;;;;12.76;59.89;98473.09;4333513;33;25360;-90
2022/09/28 04:17:31;;;;;;;;;;;;;;;12.65;59.88;98464.25;4333089;33;19979;-90
2022/09/28 04:19:56;;;;;;;;;;;;;;;12.45;59.87;98476.72;4333129;33;20034;-90
2022/09/28 04:22:22;;;;;;;;;;;;;;;12.53;59.88;98471.03;4332383;33;20650;-91
2022/09/28 04:24:47;;;;;;;;;;;;;;;12.42;59.87;98473.47;4333006;33;19980;-89
2022/09/28 04:29:56;;;;;;;;;;;;;;;12.04;59.84;98463.50;4333003;33;20058;-87
2022/09/28 04:32:21;;;;;;;;;;;;;;;11.95;59.84;98470.09;4331049;33;27692;-88
2022/09/28 04:34:46;;;;;;;;;;;;;;;11.93;59.84;98461.53;4332827;33;20338;-87
2022/09/28 04:37:12;;;;;;;;;;;;;;;12.02;59.84;98461.91;4333436;33;20000;-87
2022/09/28 04:39:37;;;;;;;;;;;;;;;11.89;59.83;98469.63;4333275;33;19980;-88
2022/09/28 04:42:02;;;;;;;;;;;;;;;12.11;59.85;98472.69;4331709;33;20286;-88
2022/09/28 04:44:27;;;;;;;;;;;;;;;12.08;59.85;98483.28;4330655;33;19976;-86
2022/09/28 04:46:53;;;;;;;;;;;;;;;11.96;59.84;98477.00;4343726;33;36476;-87
2022/09/28 04:49:19;;;;;;;;;;;;;;;12.07;59.85;98467.72;4332198;33;19987;-89
2022/09/28 04:51:44;;;;;;;;;;;;;;;11.94;59.84;98468.44;4318885;33;20027;-89
2022/09/28 04:54:09;;;;;;;;;;;;;;;12.09;59.85;98463.25;4342766;33;23278;-89
2022/09/28 04:56:34;;;;;;;;;;;;;;;11.92;59.85;98461.63;4330749;33;20265;-90
2022/09/28 04:58:59;;;;;;;;;;;;;;;11.97;59.83;98463.03;4331300;33;19995;-90
2022/09/28 05:01:25;;;;;;;;;;;;;;;11.70;59.83;98464.59;4331258;33;34787;-90
2022/09/28 05:03:50;;;;;;;;;;;;;;;11.62;59.82;98469.41;4332745;33;20290;-90
2022/09/28 05:06:15;;;;;;;;;;;;;;;11.54;59.82;98471.59;4332596;33;20018;-89
2022/09/28 05:08:41;;;;;;;;;;;;;;;11.60;59.83;98471.28;4333599;33;20604;-89
2022/09/28 05:11:06;;;;;;;;;;;;;;;11.60;59.83;98481.69;4332874;33;19990;-90
2022/09/28 05:13:34;;;;;;;;;;;;;;;11.57;59.82;98479.22;4333256;33;19986;-90
2022/09/28 05:15:59;;;;;;;;;;;;;;;11.70;59.83;98480.22;4334518;33;20043;-89
2022/09/28 05:18:24;;;;;;;;;;;;;;;11.64;59.82;98483.19;4334299;33;20078;-89
2022/09/28 05:20:50;;;;;;;;;;;;;;;11.62;59.82;98482.44;4333567;33;26417;-89
2022/09/28 05:23:15;;;;;;;;;;;;;;;11.57;59.82;98484.44;4333088;33;20006;-89
2022/09/28 05:25:40;;;;;;;;;;;;;;;11.56;59.82;98482.75;4320869;33;20018;-89
2022/09/28 05:28:07;;;;;;;;;;;;;;;11.61;59.82;98492.03;4345539;33;20011;-89
2022/09/28 05:30:33;;;;;;;;;;;;;;;11.64;59.82;98486.63;4334425;33;19998;-90
2022/09/28 05:32:58;;;;;;;;;;;;;;;11.64;59.82;98483.19;4334235;33;19968;-89
2022/09/28 05:35:23;;;;;;;;;;;;;;;11.72;59.83;98488.81;4332809;33;19995;-88
2022/09/28 05:37:49;;;;;;;;;;;;;;;11.77;59.83;98484.16;4334002;33;20611;-90
2022/09/28 05:40:14;;;;;;;;;;;;;;;11.80;59.83;98489.22;4333967;33;19984;-90
2022/09/28 05:42:40;;;;;;;;;;;;;;;11.94;59.84;98489.28;4332792;33;20009;-90
2022/09/28 05:45:05;;;;;;;;;;;;;;;12.00;59.84;98493.31;4332291;33;31157;-90
2022/09/28 05:47:30;;;;;;;;;;;;;;;11.97;59.84;98485.66;4335539;33;19987;-91
2022/09/28 05:49:56;;;;;;;;;;;;;;;12.10;59.85;98483.19;4332800;33;20246;-90
2022/09/28 05:52:21;;;;;;;;;;;;;;;11.97;59.84;98491.72;4332575;33;19976;-90
2022/09/28 05:54:46;;;;;;;;;;;;;;;11.98;59.85;98485.56;4322893;33;20000;-88
2022/09/28 05:57:12;;;;;;;;;;;;;;;12.26;59.85;98476.97;4333468;33;26029;-89
2022/09/28 05:59:37;;;;;;;;;;;;;;;12.32;59.86;98473.19;4332729;33;20039;-89
2022/09/28 06:02:02;;;;;;;;;;;;;;;12.50;59.87;98481.66;4333538;33;23233;-90
2022/09/28 06:04:28;;;;;;;;;;;;;;;12.64;59.88;98479.06;4332636;33;20020;-90
2022/09/28 06:06:53;;;;;;;;;;;;;;;12.62;59.88;98485.31;4334025;33;19980;-88
2022/09/28 06:09:18;;;;;;;;;;;;;;;12.48;59.87;98492.19;4332874;33;19987;-86
2022/09/28 06:11:43;;;;;;;;;;;;;;;12.75;59.89;98486.25;4332267;33;19990;-87
2022/09/28 06:14:09;;;;;;;;;;;;;;;12.75;59.89;98481.03;4334061;33;20016;-86
2022/09/28 06:16:34;;;;;;;;;;;;;;;12.92;59.89;98488.66;4333002;33;20008;-86
2022/09/28 06:19:00;;;;;;;;;;;;;;;12.83;59.89;98481.41;4320863;33;19992;-87
2022/09/28 06:21:26;;;;;;;;;;;;;;;12.95;59.89;98479.81;4345319;33;20008;-87
2022/09/28 06:23:52;;;;;;;;;;;;;;;13.10;59.90;98484.91;4333898;33;19984;-87
2022/09/28 06:26:17;;;;;;;;;;;;;;;13.18;59.91;98476.63;4332738;33;20002;-88
2022/09/28 06:28:42;;;;;;;;;;;;;;;13.42;59.93;98477.69;4333985;33;20032;-87
2022/09/28 06:31:07;;;;;;;;;;;;;;;13.37;59.92;98478.91;4333598;33;26640;-87
2022/09/28 06:33:34;;;;;;;;;;;;;;;13.45;59.92;98477.50;4345145;33;19999;-86
2022/09/28 06:35:59;;;;;;;;;;;;;;;13.65;59.94;98486.66;4333226;33;20002;-86
2022/09/28 06:38:25;;;;;;;;;;;;;;;13.85;59.94;98476.69;4333246;33;19990;-87
2022/09/28 06:40:50;;;;;;;;;;;;;;;14.03;59.96;98478.09;4333161;33;20923;-89
2022/09/28 06:43:15;;;;;;;;;;;;;;;13.88;59.95;98479.09;4345506;33;20000;-88
2022/09/28 06:45:40;;;;;;;;;;;;;;;14.04;59.96;98487.62;4345055;33;20005;-88
2022/09/28 06:48:06;;;;;;;;;;;;;;;14.03;59.96;98478.94;4359899;32;19968;-87
2022/09/28 06:50:40;;;;;;;;;;;;;;;14.09;59.95;98485.53;4340395;33;19979;-86
2022/09/28 06:53:08;;;;;;;;;;;;;;;14.21;59.96;98482.13;4338084;33;19980;-87
2022/09/28 06:55:33;;;;;;;;;;;;;;;14.02;59.96;98487.72;4332335;33;19992;-88
2022/09/28 06:57:59;;;;;;;;;;;;;;;14.32;59.96;98484.84;4331140;33;31636;-87
2022/09/28 07:00:26;;;;;;;;;;;;;;;14.33;59.98;98485.69;4331807;33;19975;-89
2022/09/28 07:02:51;;;;;;;;;;;;;;;14.39;59.97;98486.09;4343935;32;20003;-88
2022/09/28 07:05:18;;;;;;;;;;;;;;;14.66;59.99;98474.72;4333253;33;20002;-89
2022/09/28 07:07:43;;;;;;;;;;;;;;;14.48;59.99;98482.06;4332042;33;20003;-89
2022/09/28 07:10:09;;;;;;;;;;;;;;;14.80;60.00;98485.09;4343606;33;20322;-88
2022/09/28 07:12:35;;;;;;;;;;;;;;;14.83;59.99;98487.50;4321740;33;20117;-89
2022/09/28 07:15:00;;;;;;;;;;;;;;;14.77;59.99;98482.69;4331309;33;20032;-88
2022/09/28 07:17:25;;;;;;;;;;;;;;;14.95;60.00;98484.03;4343620;33;20010;-89
2022/09/28 07:19:56;;;;;;;;;;;;;;;14.95;60.01;98478.78;4331055;33;20015;-89
2022/09/28 07:22:22;;;;;;;;;;;;;;;14.98;60.00;98478.56;4331452;33;20025;-89
2022/09/28 07:24:47;;;;;;;;;;;;;;;15.01;60.00;98469.66;4332229;33;29751;-89
2022/09/28 07:27:13;;;;;;;;;;;;;;;14.92;60.00;98478.16;4331291;33;19987;-89
2022/09/28 07:29:38;;;;;;;;;;;;;;;15.04;60.01;98472.06;4331493;33;20006;-89
2022/09/28 07:32:03;;;;;;;;;;;;;;;15.13;60.02;98470.56;4331004;33;25375;-89
2022/09/28 07:34:29;;;;;;;;;;;;;;;15.33;60.02;98469.97;4331548;33;20292;-88
2022/09/28 07:36:56;;;;;;;;;;;;;;;15.44;60.03;98464.81;4318185;33;36798;-89
2022/09/28 07:39:22;;;;;;;;;;;;;;;15.73;60.05;98470.59;4331623;33;19994;-88
2022/09/28 07:41:47;;;;;;;;;;;;;;;15.61;60.04;98458.34;4332817;33;19992;-89
2022/09/28 07:44:12;;;;;;;;;;;;;;;15.74;60.04;98458.31;4331150;33;20018;-89
2022/09/28 07:46:38;;;;;;;;;;;;;;;16.09;60.07;98461.78;4321131;33;28175;-89
2022/09/28 07:49:06;;;;;;;;;;;;;;;16.27;60.08;98463.00;4343558;33;19987;-89
2022/09/28 07:51:31;;;;;;;;;;;;;;;16.44;60.08;98460.91;4319026;33;20003;-89
2022/09/28 07:53:57;;;;;;;;;;;;;;;16.43;60.08;98472.34;4319026;33;20022;-89
2022/09/28 07:56:22;;;;;;;;;;;;;;;16.67;60.09;98470.50;4330988;33;19975;-90
2022/09/28 07:58:48;;;;;;;;;;;;;;;16.73;60.10;98474.44;4332283;33;19972;-89
2022/09/28 08:01:15;;;;;;;;;;;;;;;16.80;60.10;98476.50;4331122;33;20002;-89
2022/09/28 08:03:44;;;;;;;;;;;;;;;17.05;60.12;98477.22;4330987;33;20051;-89
2022/09/28 08:06:11;;;;;;;;;;;;;;;17.10;60.12;98467.16;4331398;33;19968;-89
2022/09/28 08:08:36;;;;;;;;;;;;;;;17.05;60.12;98474.59;4334007;33;20031;-89
2022/09/28 08:11:02;;;;;;;;;;;;;;;17.11;60.12;98474.94;4331032;33;20003;-89
2022/09/28 08:13:27;;;;;;;;;;;;;;;17.11;60.12;98472.31;4331118;33;20611;-90
2022/09/28 08:15:53;;;;;;;;;;;;;;;17.29;60.13;98459.50;4330976;33;19980;-88
2022/09/28 08:18:18;;;;;;;;;;;;;;;17.35;60.13;98442.38;4332455;33;19991;-89
2022/09/28 08:23:27;;;;;;;;;;;;;;;17.42;60.14;98433.84;4331206;33;20002;-89
2022/09/28 08:25:55;;;;;;;;;;;;;;;17.50;60.13;98431.44;4332314;33;34367;-89
2022/09/28 08:28:21;;;;;;;;;;;;;;;17.64;60.15;98426.84;4331995;33;20845;-90
2022/09/28 08:30:49;;;;;;;;;;;;;;;17.77;60.16;98422.28;4346381;33;20008;-90
2022/09/28 08:33:16;;;;;;;;;;;;;;;17.83;60.15;98429.69;4334372;33;20079;-89
2022/09/28 08:35:41;;;;;;;;;;;;;;;17.86;60.16;98432.06;4331680;33;19987;-89
2022/09/28 08:38:07;;;;;;;;;;;;;;;17.94;60.17;98440.13;4331297;33;19979;-88
2022/09/28 08:40:34;;;;;;;;;;;;;;;18.10;60.17;98458.16;4332156;33;20292;-89
2022/09/28 08:43:00;;;;;;;;;;;;;;;18.18;60.18;98454.84;4330748;33;19992;-88
2022/09/28 08:45:29;;;;;;;;;;;;;;;18.12;60.17;98455.38;4330765;33;20243;-88
2022/09/28 08:50:55;;;;;;;;;;;;;;;18.16;60.18;98455.00;4332592;33;19998;-88
2022/09/28 08:53:39;;;;;;;;;;;;;;;18.29;60.18;98460.91;4320024;33;20003;-89
2022/09/28 08:56:06;;;;;;;;;;;;;;;18.38;60.19;98454.84;4332474;33;19984;-89
2022/09/28 08:58:32;;;;;;;;;;;;;;;18.52;60.19;98451.06;4344429;33;19987;-89
2022/09/28 09:00:58;;;;;;;;;;;;;;;18.57;60.20;98445.41;4332416;33;20007;-89
2022/09/28 09:03:31;;;;;;;;;;;;;;;18.76;60.21;98448.16;4344358;32;19992;-90
2022/09/28 09:06:15;;;;;;;;;;;;;;;18.79;60.21;98433.88;4335887;33;19984;-90
2022/09/28 09:08:40;;;;;;;;;;;;;;;18.83;60.21;98427.38;4334066;33;20491;-90
2022/09/28 09:11:08;;;;;;;;;;;;;;;18.77;60.21;98436.66;4332673;33;19996;-89
2022/09/28 09:13:49;;;;;;;;;;;;;;;18.80;60.21;98433.75;4332377;33;20003;-87
2022/09/28 09:16:20;;;;;;;;;;;;;;;18.96;60.22;98428.81;4332702;33;20055;-89
2022/09/28 09:18:48;;;;;;;;;;;;;;;18.99;60.22;98423.28;4332586;33;19976;-89
2022/09/28 09:21:14;;;;;;;;;;;;;;;19.17;60.23;98414.72;4333135;33;20026;-89
2022/09/28 09:23:48;;;;;;;;;;;;;;;19.22;60.23;98418.59;4334999;33;19963;-90
2022/09/28 09:26:16;;;;;;;;;;;;;;;19.46;60.24;98422.66;4333567;33;20260;-89
2022/09/28 09:28:54;;;;;;;;;;;;;;;19.63;60.26;98428.12;4332799;33;19990;-89
2022/09/28 09:31:30;;;;;;;;;;;;;;;19.86;60.27;98420.75;4332876;33;20047;-89
2022/09/28 09:34:11;;;;;;;;;;;;;;;19.96;60.27;98423.41;4332975;33;20329;-90
2022/09/28 09:36:59;;;;;;;;;;;;;;;19.95;60.27;98419.09;4321571;33;20424;-90
2022/09/28 09:39:30;;;;;;;;;;;;;;;20.07;60.27;98417.13;4342636;33;19960;-89
2022/09/28 09:42:22;;;;;;;;;;;;;;;20.20;60.28;98423.78;4347962;32;20010;-89
2022/09/28 09:45:06;;;;;;;;;;;;;;;20.27;60.29;98421.41;4343256;33;20337;-90
2022/09/28 09:47:52;;;;;;;;;;;;;;;20.38;60.29;98418.59;4338304;33;19983;-88
2022/09/28 09:50:18;;;;;;;;;;;;;;;20.49;60.31;98405.22;4332956;33;20356;-88
2022/09/28 09:52:48;;;;;;;;;;;;;;;20.58;60.30;98419.38;4332446;33;20003;-89
2022/09/28 09:55:13;;;;;;;;;;;;;;;20.56;60.31;98420.50;4332700;33;19999;-89
2022/09/28 09:57:40;;;;;;;;;;;;;;;20.71;60.31;98409.31;4333901;33;20279;-88
2022/09/28 10:00:12;;;;;;;;;;;;;;;20.74;60.31;98411.69;4332058;33;20039;-90
2022/09/28 10:02:37;;;;;;;;;;;;;;;20.74;60.32;98416.13;4320158;33;20043;-89
2022/09/28 10:05:06;;;;;;;;;;;;;;;20.69;60.31;98413.94;4334735;33;20317;-89
2022/09/28 10:07:35;;;;;;;;;;;;;;;20.74;60.32;98419.62;4332660;33;20084;-90
2022/09/28 10:10:00;;;;;;;;;;;;;;;20.66;60.31;98427.44;4332192;33;20023;-88
2022/09/28 10:12:25;;;;;;;;;;;;;;;20.74;60.32;98426.72;4319094;33;33682;-89
2022/09/28 10:14:51;;;;;;;;;;;;;;;20.66;60.31;98427.44;4332131;33;20317;-88
2022/09/28 10:17:17;;;;;;;;;;;;;;;20.76;60.32;98427.41;4344347;33;20024;-89
2022/09/28 10:19:42;;;;;;;;;;;;;;;20.62;60.32;98426.06;4319946;33;19994;-89
2022/09/28 10:22:08;;;;;;;;;;;;;;;20.69;60.31;98431.59;4319889;33;20333;-89
2022/09/28 10:24:36;;;;;;;;;;;;;;;20.68;60.31;98427.31;4334845;33;19991;-90
2022/09/28 10:27:04;;;;;;;;;;;;;;;20.70;60.31;98423.53;4333353;33;20071;-89
2022/09/28 10:29:30;;;;;;;;;;;;;;;20.82;60.31;98427.66;4333695;33;19994;-89
2022/09/28 10:31:55;;;;;;;;;;;;;;;20.88;60.33;98425.41;4330740;33;20333;-89
2022/09/28 10:34:27;;;;;;;;;;;;;;;21.13;60.33;98417.63;4344430;33;20063;-88
2022/09/28 10:36:58;;;;;;;;;;;;;;;21.22;60.34;98423.00;4334205;33;19997;-88
2022/09/28 10:39:35;;;;;;;;;;;;;;;21.15;60.33;98420.94;4320348;33;20027;-88
2022/09/28 10:42:04;;;;;;;;;;;;;;;20.91;60.32;98425.94;4332600;33;19999;-90
2022/09/28 10:44:30;;;;;;;;;;;;;;;20.91;60.32;98420.66;4332771;33;20006;-89
2022/09/28 10:46:56;;;;;;;;;;;;;;;21.03;60.34;98424.75;4332852;33;20015;-89
2022/09/28 10:49:21;;;;;;;;;;;;;;;21.06;60.33;98421.00;4334575;33;19976;-88
2022/09/28 10:51:56;;;;;;;;;;;;;;;20.98;60.33;98421.72;4338413;33;25433;-90
2022/09/28 10:54:28;;;;;;;;;;;;;;;21.02;60.33;98419.62;4346746;33;19983;-90
2022/09/28 10:56:54;;;;;;;;;;;;;;;21.07;60.33;98420.03;4335268;33;20039;-89
2022/09/28 10:59:28;;;;;;;;;;;;;;;20.98;60.33;98418.25;4321399;33;19983;-90
2022/09/28 11:01:58;;;;;;;;;;;;;;;20.89;60.33;98416.50;4332746;33;20654;-90
2022/09/28 11:04:24;;;;;;;;;;;;;;;20.91;60.32;98414.53;4348681;33;19964;-89
2022/09/28 11:06:50;;;;;;;;;;;;;;;21.01;60.34;98404.72;4333090;33;19971;-89
2022/09/28 11:09:25;;;;;;;;;;;;;;;21.18;60.34;98396.00;4333060;33;20392;-90
2022/09/28 11:11:51;;;;;;;;;;;;;;;21.37;60.35;98384.50;4332132;33;20272;-90
2022/09/28 11:14:25;;;;;;;;;;;;;;;21.48;60.36;98381.59;4333907;33;19983;-90
2022/09/28 11:17:10;;;;;;;;;;;;;;;21.71;60.37;98384.63;4334254;33;19981;-90
2022/09/28 11:19:35;;;;;;;;;;;;;;;21.81;60.38;98381.91;4336512;33;19972;-90
2022/09/28 11:22:00;;;;;;;;;;;;;;;21.91;60.37;98375.53;4320237;33;20007;-90
2022/09/28 11:24:26;;;;;;;;;;;;;;;21.79;60.38;98375.94;4333297;33;35114;-91
2022/09/28 11:26:52;;;;;;;;;;;;;;;21.72;60.37;98373.88;4334079;33;20046;-92
2022/09/28 11:29:33;;;;;;;;;;;;;;;21.95;60.38;98374.22;4332960;33;20604;-90
2022/09/28 11:31:59;;;;;;;;;;;;;;;21.93;60.38;98370.91;4332756;33;20023;-90
2022/09/28 11:34:27;;;;;;;;;;;;;;;21.82;60.38;98372.97;4332786;33;20266;-89
2022/09/28 11:36:52;;;;;;;;;;;;;;;21.84;60.38;98376.31;4320579;33;20348;-91
2022/09/28 11:39:37;;;;;;;;;;;;;;;21.90;60.38;98380.97;4335280;33;20032;-90
2022/09/28 11:42:25;;;;;;;;;;;;;;;21.94;60.39;98372.56;4332701;33;19996;-90
2022/09/28 11:45:05;;;;;;;;;;;;;;;22.05;60.39;98374.19;4326242;33;19983;-90
2022/09/28 11:47:39;;;;;;;;;;;;;;;22.05;60.39;98375.00;4332931;33;19987;-91
2022/09/28 11:50:17;;;;;;;;;;;;;;;22.18;60.40;98366.62;4332492;33;19984;-89
2022/09/28 11:52:46;;;;;;;;;;;;;;;22.21;60.40;98373.44;4332463;33;20031;-90
2022/09/28 11:55:21;;;;;;;;;;;;;;;22.31;60.40;98369.72;4332701;33;19996;-89
2022/09/28 11:57:55;;;;;;;;;;;;;;;22.62;60.42;98363.88;4346910;33;19961;-90
2022/09/28 12:00:25;;;;;;;;;;;;;;;22.62;60.42;98351.47;4332663;33;20340;-91
2022/09/28 12:02:52;;;;;;;;;;;;;;;22.40;60.42;98352.00;4333651;33;20419;-89
2022/09/28 12:05:20;;;;;;;;;;;;;;;22.27;60.40;98347.16;4332388;33;19999;-90
2022/09/28 12:07:46;;;;;;;;;;;;;;;22.25;60.40;98341.19;4332155;33;20071;-89
2022/09/28 12:10:30;;;;;;;;;;;;;;;22.34;60.41;98337.56;4332090;33;19984;-89
2022/09/28 12:13:09;;;;;;;;;;;;;;;22.30;60.40;98330.94;4331911;33;20432;-90
2022/09/28 12:15:42;;;;;;;;;;;;;;;22.22;60.40;98332.69;4332361;33;20422;-89
2022/09/28 12:18:12;;;;;;;;;;;;;;;22.18;60.40;98331.34;4334408;33;20889;-89
2022/09/28 12:20:38;;;;;;;;;;;;;;;22.09;60.39;98334.94;4332023;33;20022;-89
2022/09/28 12:23:05;;;;;;;;;;;;;;;21.92;60.38;98332.16;4333776;33;20575;-90
2022/09/28 12:25:33;;;;;;;;;;;;;;;21.87;60.38;98330.94;4333928;33;19992;-90
2022/09/28 12:28:03;;;;;;;;;;;;;;;21.87;60.38;98329.13;4332505;33;20400;-91
2022/09/28 12:30:29;;;;;;;;;;;;;;;21.67;60.37;98327.66;4332395;33;20016;-89
2022/09/28 12:32:57;;;;;;;;;;;;;;;21.38;60.35;98333.22;4332893;33;20006;-90
2022/09/28 12:35:37;;;;;;;;;;;;;;;21.39;60.36;98325.13;4332049;33;20014;-90
2022/09/28 12:38:07;;;;;;;;;;;;;;;21.54;60.36;98316.66;4344227;33;19960;-86
2022/09/28 12:40:32;;;;;;;;;;;;;;;21.69;60.37;98323.03;4348188;32;19966;-88
2022/09/28 12:42:58;;;;;;;;;;;;;;;22.01;60.40;98311.84;4340967;33;19983;-91
2022/09/28 12:45:39;;;;;;;;;;;;;;;22.03;60.40;98315.19;4339094;33;20039;-90
2022/09/28 12:48:07;;;;;;;;;;;;;;;22.03;60.40;98299.28;4349452;33;19952;-89
2022/09/28 12:50:51;;;;;;;;;;;;;;;22.04;60.39;98312.41;4334812;33;20334;-91
2022/09/28 12:53:36;;;;;;;;;;;;;;;22.15;60.39;98311.28;4333680;33;20020;-90
2022/09/28 12:56:01;;;;;;;;;;;;;;;21.90;60.39;98314.75;4333791;33;20003;-90
2022/09/28 12:58:36;;;;;;;;;;;;;;;21.83;60.38;98309.25;4335625;33;20052;-91
2022/09/28 13:01:04;;;;;;;;;;;;;;;21.96;60.39;98304.34;4332161;33;20313;-92